Date,TemperatureHighF,TemperatureAvgF,TemperatureLowF,DewpointHighF,DewpointAvgF,DewpointLowF,HumidityHigh,HumidityAvg,HumidityLow,PressureMaxIn,PressureMinIn,WindSpeedMaxMPH,WindSpeedAvgMPH,GustSpeedMaxMPH,PrecipitationSumIn
2013-2-1,61,51,42,43,37,26,71,58,38,30.40,30.31,16,5,18,0.00
2013-2-2,60,50,37,54,39,23,90,68,47,30.37,30.18,8,3,11,0.00
2013-2-3,62,54,47,53,48,41,93,81,47,30.26,30.13,8,2,14,0.00
2013-2-4,59,54,48,54,44,35,90,71,57,30.13,29.99,4,1,7,0.04
2013-2-5,67,60,56,62,58,54,96,93,83,30.04,29.95,4,0,8,0.31
2013-2-6,63,58,53,60,56,52,98,95,87,30.16,30.02,7,1,9,0.00
2013-2-7,72,63,58,61,59,56,97,88,67,30.02,29.77,10,2,38,1.03
2013-2-9,65,54,44,55,49,41,92,83,68,30.26,30.12,7,1,9,0.00
2013-2-10,73,66,55,69,62,52,98,89,77,30.13,29.97,13,3,18,0.04
2013-2-11,68,62,57,68,61,56,98,96,91,30.12,30.00,10,2,18,0.46
2013-2-12,69,62,57,68,60,55,98,96,92,30.05,29.76,16,4,24,0.56
2013-2-13,67,54,46,66,51,43,98,89,81,30.07,29.78,23,8,26,0.07
2013-2-14,58,47,42,44,42,40,94,81,56,30.17,30.05,10,2,11,0.00
2013-2-15,63,52,43,50,45,40,91,78,51,30.19,30.05,17,4,22,0.00
2013-2-16,52,48,38,45,33,22,77,56,37,30.30,30.09,26,15,32,0.00
2013-2-17,51,42,32,35,28,22,73,60,43,30.40,30.29,9,2,12,0.00
2013-2-18,65,55,43,54,45,35,82,69,51,30.30,30.03,10,2,18,0.00
2013-2-19,66,60,47,60,48,32,96,68,35,30.21,29.97,16,5,20,0.18
2013-2-20,61,48,41,37,31,26,67,52,33,30.28,30.09,7,1,10,0.00
2013-2-21,68,58,44,66,48,32,91,71,54,30.09,29.87,5,2,12,0.00
2013-2-22,71,65,59,68,64,58,98,95,91,29.97,29.85,10,1,25,0.80
2013-2-23,60,57,55,59,56,54,98,97,94,29.95,29.76,15,2,19,0.83
2013-2-24,65,58,49,59,54,48,97,89,77,29.99,29.80,8,1,11,0.29
2013-2-25,67,62,58,66,61,57,97,95,86,29.84,29.51,19,3,30,1.75
2013-2-26,64,56,51,63,48,40,97,73,61,29.93,29.54,20,12,24,0.00
2013-2-27,59,55,47,53,46,42,85,73,59,30.04,29.92,15,6,20,0.00
2013-2-28,56,52,46,49,40,33,86,65,42,30.09,29.98,21,9,23,0.00